Impacts TAF Board
For situational awareness. Not to be used for flight planning purposes.
IDs:

KBBD - Brady/Curtis Fld, TX, US

Issued at 1120 UTC 07 Jul 2020
Updated at 1352 UTC 07 Jul 2020
Potential Impact None Slight Moderate High
Time<<08/14Z 08/15Z 08/16Z 08/17Z 08/18Z 08/19Z 08/20Z 08/21Z 08/22Z 08/23Z 09/00Z 09/01Z 09/02Z
Type
VIS
CIG
Cover
FltCat
WX
WDir
WSpd
WGst
Raw TAF
KBBD 071120Z 0712/0812 14004KT P6SM BKN080
  FM072000 13008KT P6SM SCT080


METAR Board
Radar Display
Forecast Discussion
For situational awareness. Not to be used for flight planning purposes.